Time;durP1;ratioP1;P1;durP2;ratioP2;P2;SDS_P1;SDS_P2;PMS_P1;PMS_P2;Temp;Humidity;BMP_temperature;BMP_pressure;BME280_temperature;BME280_humidity;BME280_pressure;Samples;Min_cycle;Max_cycle;Signal;HPM_P1;HPM_P2
2023/12/29 00:00:12;;;;;;;33.00;19.00;;;;;;;7.96;67.88;95273.81;5049070;28;20199;-64
2023/12/29 00:02:40;;;;;;;34.40;19.77;;;;;;;7.95;68.02;95272.19;5049060;28;20770;-65
2023/12/29 00:05:08;;;;;;;31.50;17.97;;;;;;;7.91;68.09;95276.69;5049042;28;20209;-68
2023/12/29 00:07:35;;;;;;;33.53;19.10;;;;;;;7.89;68.00;95268.34;5048768;28;20199;-68
2023/12/29 00:10:01;;;;;;;34.67;19.67;;;;;;;7.92;68.04;95273.22;5048966;28;20278;-68
2023/12/29 00:12:28;;;;;;;32.37;20.30;;;;;;;7.86;68.11;95263.47;5048968;28;20195;-68
2023/12/29 00:14:55;;;;;;;30.10;17.77;;;;;;;7.85;68.15;95266.91;5048922;28;20652;-65
2023/12/29 00:17:22;;;;;;;29.93;17.07;;;;;;;7.87;68.16;95262.53;5049014;28;20665;-65
2023/12/29 00:19:50;;;;;;;33.67;18.90;;;;;;;7.71;68.22;95242.44;5048834;28;20231;-67
2023/12/29 00:22:17;;;;;;;28.83;17.73;;;;;;;7.86;68.09;95272.81;5048979;28;20213;-70
2023/12/29 00:24:44;;;;;;;27.50;17.10;;;;;;;7.84;68.11;95278.03;5048672;28;20237;-66
2023/12/29 00:27:10;;;;;;;34.10;19.00;;;;;;;7.84;68.23;95279.75;5048983;28;20187;-69
2023/12/29 00:29:37;;;;;;;32.80;17.70;;;;;;;7.80;68.28;95267.25;5049060;28;20187;-67
2023/12/29 00:32:05;;;;;;;25.73;17.20;;;;;;;7.77;68.26;95261.53;5051760;28;20198;-67
2023/12/29 00:34:31;;;;;;;25.83;16.50;;;;;;;7.80;68.24;95266.44;5052536;28;20191;-66
2023/12/29 00:36:59;;;;;;;27.83;16.07;;;;;;;7.78;68.21;95261.44;5052940;28;20187;-70
2023/12/29 00:39:30;;;;;;;29.87;15.90;;;;;;;7.78;68.17;95255.56;5052414;28;20273;-65
2023/12/29 00:41:58;;;;;;;27.60;16.60;;;;;;;7.67;68.28;95245.28;5052574;28;20281;-64
2023/12/29 00:44:24;;;;;;;26.53;16.03;;;;;;;7.76;68.39;95267.56;5052535;28;20203;-66
2023/12/29 00:46:51;;;;;;;23.13;16.37;;;;;;;7.75;68.52;95255.75;5052788;28;20198;-66
2023/12/29 00:49:18;;;;;;;27.17;16.37;;;;;;;7.75;68.37;95251.47;5052044;28;20179;-66
2023/12/29 00:51:45;;;;;;;28.83;17.67;;;;;;;7.74;68.50;95256.69;5052503;28;20199;-64
2023/12/29 00:54:13;;;;;;;27.97;17.13;;;;;;;7.74;68.35;95257.50;5052739;28;20187;-71
2023/12/29 00:56:40;;;;;;;30.73;15.77;;;;;;;7.62;68.41;95243.06;5052265;28;20191;-68
2023/12/29 00:59:07;;;;;;;24.70;15.50;;;;;;;7.70;68.41;95248.44;5052538;28;20194;-69
2023/12/29 01:01:35;;;;;;;26.67;16.23;;;;;;;7.73;68.67;95255.06;5051882;28;20218;-70
2023/12/29 01:04:02;;;;;;;26.67;15.87;;;;;;;7.73;68.28;95252.53;5052155;28;20215;-66
2023/12/29 01:06:29;;;;;;;26.57;16.27;;;;;;;7.73;68.55;95258.41;5052135;28;20245;-70
2023/12/29 01:08:56;;;;;;;28.07;17.57;;;;;;;7.62;68.61;95230.34;5051867;28;20191;-73
2023/12/29 01:11:24;;;;;;;25.97;16.13;;;;;;;7.72;68.44;95248.31;5052448;28;20192;-71
2023/12/29 01:13:51;;;;;;;26.47;16.23;;;;;;;7.71;68.50;95250.06;5052142;28;20218;-74
2023/12/29 01:16:18;;;;;;;21.77;15.63;;;;;;;7.69;68.60;95246.81;5052712;28;20198;-71
2023/12/29 01:18:44;;;;;;;24.63;16.00;;;;;;;7.69;68.53;95256.19;5053155;28;20749;-70
2023/12/29 01:21:11;;;;;;;25.43;16.07;;;;;;;7.67;68.61;95261.38;5061619;28;20219;-66
2023/12/29 01:23:38;;;;;;;23.67;15.03;;;;;;;7.56;68.50;95240.16;5054888;28;20187;-73
2023/12/29 01:26:05;;;;;;;25.57;15.03;;;;;;;7.61;68.70;95245.72;5052118;28;20249;-72
2023/12/29 01:28:32;;;;;;;26.13;15.67;;;;;;;7.51;68.85;95232.81;5052106;28;20186;-76
2023/12/29 01:30:59;;;;;;;23.90;15.83;;;;;;;7.64;68.87;95263.31;5051745;28;20198;-69
2023/12/29 01:33:25;;;;;;;27.07;16.53;;;;;;;7.62;68.80;95260.88;5051488;28;20199;-68
2023/12/29 01:35:52;;;;;;;27.40;15.77;;;;;;;7.62;68.87;95263.44;5051605;28;20195;-72
2023/12/29 01:38:19;;;;;;;25.93;16.60;;;;;;;7.58;68.83;95256.09;5051394;28;20187;-69
2023/12/29 01:40:46;;;;;;;26.23;16.57;;;;;;;7.60;68.89;95267.81;5051760;28;20221;-68
2023/12/29 01:43:14;;;;;;;29.13;16.83;;;;;;;7.00;68.79;95174.41;5050152;28;20195;-67
2023/12/29 01:45:42;;;;;;;24.40;16.27;;;;;;;7.52;68.97;95247.19;5051667;28;20196;-73
2023/12/29 01:48:09;;;;;;;29.70;18.20;;;;;;;7.27;68.89;95208.13;5051044;28;20249;-68
2023/12/29 01:50:37;;;;;;;26.83;17.77;;;;;;;7.57;68.93;95257.03;5051279;28;20646;-69
2023/12/29 01:53:04;;;;;;;30.63;18.43;;;;;;;7.56;68.86;95257.97;5051013;28;20195;-70
2023/12/29 01:55:33;;;;;;;34.00;18.47;;;;;;;7.56;69.27;95255.41;5051497;28;20563;-73
2023/12/29 01:58:00;;;;;;;31.37;18.80;;;;;;;7.53;69.16;95247.06;5051115;28;20191;-69
2023/12/29 02:00:27;;;;;;;35.27;19.83;;;;;;;7.52;69.00;95247.19;5051045;28;20195;-73
2023/12/29 02:02:56;;;;;;;33.77;20.67;;;;;;;7.51;69.10;95237.88;5051046;28;20537;-67
2023/12/29 02:05:26;;;;;;;28.93;18.30;;;;;;;7.47;69.03;95231.38;5051115;28;20210;-71
2023/12/29 02:07:54;;;;;;;31.30;19.50;;;;;;;7.50;69.12;95231.19;5051141;28;20187;-71
2023/12/29 02:10:20;;;;;;;33.63;20.33;;;;;;;7.46;68.96;95232.31;5050699;28;20225;-69
2023/12/29 02:12:49;;;;;;;29.97;19.53;;;;;;;7.47;69.22;95229.69;5050828;28;20183;-68
2023/12/29 02:15:16;;;;;;;31.47;19.63;;;;;;;7.46;69.12;95219.59;5050965;28;20187;-71
2023/12/29 02:17:46;;;;;;;31.70;19.47;;;;;;;7.36;69.06;95200.78;5050827;28;20230;-73
2023/12/29 02:20:15;;;;;;;31.77;19.20;;;;;;;7.44;69.02;95219.69;5050294;28;20222;-70
2023/12/29 02:22:42;;;;;;;30.40;19.87;;;;;;;7.43;69.09;95207.91;5050689;28;20234;-69
2023/12/29 02:25:11;;;;;;;32.33;18.53;;;;;;;7.43;69.18;95207.09;5050618;28;20187;-69
2023/12/29 02:27:47;;;;;;;30.53;20.60;;;;;;;7.42;69.38;95213.88;5050512;28;20183;-70
2023/12/29 02:30:21;;;;;;;31.53;19.03;;;;;;;7.38;69.22;95202.28;5050443;28;20742;-74
2023/12/29 02:32:50;;;;;;;30.93;18.40;;;;;;;7.33;69.41;95185.72;5050989;28;20192;-70
2023/12/29 02:35:24;;;;;;;27.67;18.33;;;;;;;7.47;69.52;95208.47;5050094;28;20656;-67
2023/12/29 02:37:51;;;;;;;29.97;19.07;;;;;;;7.47;69.57;95204.22;5050544;28;20187;-67
2023/12/29 02:40:19;;;;;;;31.13;18.80;;;;;;;7.48;69.56;95202.50;5050386;28;20187;-71
2023/12/29 02:42:47;;;;;;;29.73;19.33;;;;;;;7.44;69.53;95196.00;5050196;28;20218;-66
2023/12/29 02:45:14;;;;;;;31.60;18.67;;;;;;;7.47;69.45;95188.97;5049950;28;20187;-72
2023/12/29 02:47:42;;;;;;;30.87;18.80;;;;;;;7.46;69.51;95189.84;5050368;28;20190;-69
2023/12/29 02:50:09;;;;;;;28.73;18.57;;;;;;;7.44;69.45;95183.28;5050146;28;20275;-65
2023/12/29 02:52:36;;;;;;;27.17;18.63;;;;;;;7.45;69.45;95185.69;5050056;28;20204;-67
2023/12/29 02:55:04;;;;;;;34.10;20.67;;;;;;;7.45;69.58;95177.25;5049592;28;20183;-71
2023/12/29 02:57:32;;;;;;;32.40;19.67;;;;;;;7.43;69.56;95182.47;5049762;28;20222;-68
2023/12/29 02:59:58;;;;;;;31.97;20.37;;;;;;;7.42;69.50;95180.81;5049750;28;20187;-69
2023/12/29 03:02:25;;;;;;;31.80;19.83;;;;;;;7.29;69.55;95157.94;5050026;28;20215;-73
2023/12/29 03:04:52;;;;;;;36.00;19.60;;;;;;;7.03;69.45;95118.25;5049969;28;20241;-71
2023/12/29 03:07:19;;;;;;;29.83;20.47;;;;;;;7.38;69.43;95171.75;5049874;28;20199;-70
2023/12/29 03:09:46;;;;;;;33.40;20.70;;;;;;;7.35;69.70;95166.09;5050523;28;20190;-74
2023/12/29 03:12:12;;;;;;;31.97;21.80;;;;;;;7.36;69.70;95167.72;5050670;28;20195;-70
2023/12/29 03:14:41;;;;;;;32.60;20.30;;;;;;;7.36;69.67;95163.44;5050098;28;20183;-65
2023/12/29 03:17:07;;;;;;;39.90;21.13;;;;;;;7.23;69.89;95147.41;5049488;28;20203;-66
2023/12/29 03:19:34;;;;;;;34.60;20.90;;;;;;;7.34;69.60;95161.91;5049266;28;20235;-68
2023/12/29 03:22:01;;;;;;;33.97;20.43;;;;;;;7.32;69.49;95163.75;5049411;28;20230;-67
2023/12/29 03:24:30;;;;;;;31.73;20.03;;;;;;;7.30;69.58;95174.06;5050614;28;20702;-64
2023/12/29 03:26:57;;;;;;;34.80;21.33;;;;;;;7.28;69.54;95165.69;5053292;28;20199;-64
2023/12/29 03:29:24;;;;;;;34.17;20.93;;;;;;;7.26;69.64;95168.34;5051209;28;20198;-66
2023/12/29 03:31:52;;;;;;;27.47;20.97;;;;;;;7.22;69.52;95155.97;5049812;28;20195;-66
2023/12/29 03:34:19;;;;;;;36.93;21.97;;;;;;;7.23;69.46;95160.13;5049684;28;20191;-71
2023/12/29 03:36:46;;;;;;;35.43;21.57;;;;;;;7.16;69.59;95152.09;5049133;28;20591;-67
2023/12/29 03:39:13;;;;;;;33.53;22.73;;;;;;;7.19;69.45;95161.25;5049421;28;20198;-73
2023/12/29 03:41:40;;;;;;;36.10;21.97;;;;;;;6.93;69.47;95112.19;5049080;28;20621;-70
2023/12/29 03:44:06;;;;;;;34.87;21.93;;;;;;;7.16;69.54;95154.63;5049742;28;20214;-73
2023/12/29 03:46:33;;;;;;;40.33;23.03;;;;;;;7.16;69.45;95169.88;5049434;28;20218;-72
2023/12/29 03:49:01;;;;;;;35.13;21.30;;;;;;;7.15;69.64;95165.72;5049053;28;20664;-72
2023/12/29 03:51:29;;;;;;;34.73;22.20;;;;;;;7.13;69.59;95165.03;5051862;28;20187;-71
2023/12/29 03:53:58;;;;;;;44.90;24.63;;;;;;;7.07;69.55;95155.25;5055119;28;20225;-71
2023/12/29 03:56:25;;;;;;;36.93;23.17;;;;;;;7.05;70.03;95159.66;5059342;28;20215;-73
2023/12/29 03:58:51;;;;;;;31.60;22.63;;;;;;;7.01;69.47;95160.78;5049692;28;20187;-74
2023/12/29 04:01:19;;;;;;;34.63;22.47;;;;;;;7.07;69.53;95170.53;5049625;28;20179;-72
2023/12/29 04:03:46;;;;;;;32.87;22.90;;;;;;;7.08;69.56;95171.34;5049039;28;20199;-67
2023/12/29 04:06:15;;;;;;;34.80;23.47;;;;;;;7.05;69.59;95169.81;5050620;28;20245;-68
2023/12/29 04:08:42;;;;;;;36.87;22.80;;;;;;;7.04;69.60;95165.66;5053018;28;20202;-68
2023/12/29 04:11:08;;;;;;;38.07;23.90;;;;;;;7.02;69.59;95165.75;5053793;28;20236;-74
2023/12/29 04:13:36;;;;;;;38.97;24.30;;;;;;;6.93;69.75;95152.84;5052931;28;20215;-65
2023/12/29 04:16:03;;;;;;;36.40;23.30;;;;;;;7.00;69.60;95174.41;5053228;28;20626;-72
2023/12/29 04:18:30;;;;;;;35.20;22.60;;;;;;;6.98;69.77;95169.41;5052444;28;20229;-74
2023/12/29 04:20:57;;;;;;;39.87;23.20;;;;;;;6.90;69.71;95156.41;5053303;28;20184;-67
2023/12/29 04:23:25;;;;;;;37.80;24.27;;;;;;;6.97;69.63;95170.34;5052873;28;20234;-71
2023/12/29 04:25:52;;;;;;;37.00;23.40;;;;;;;6.95;69.69;95172.19;5052506;28;20202;-69
2023/12/29 04:28:19;;;;;;;37.00;23.13;;;;;;;6.96;69.59;95168.72;5052861;28;20199;-70
2023/12/29 04:30:46;;;;;;;40.57;24.47;;;;;;;6.95;69.53;95163.72;5052770;28;20253;-73
2023/12/29 04:33:12;;;;;;;35.20;24.57;;;;;;;6.93;69.63;95166.38;5052792;28;20214;-70
2023/12/29 04:35:39;;;;;;;39.87;24.13;;;;;;;6.92;69.64;95163.94;5052323;28;20195;-74
2023/12/29 04:38:07;;;;;;;40.63;23.37;;;;;;;6.91;69.57;95168.22;5051250;28;20672;-66
2023/12/29 04:40:35;;;;;;;38.23;23.57;;;;;;;6.90;69.66;95168.31;5052360;28;20230;-69
2023/12/29 04:43:02;;;;;;;44.83;23.73;;;;;;;6.85;69.68;95163.53;5052716;28;20288;-74
2023/12/29 04:45:28;;;;;;;37.47;23.57;;;;;;;6.88;69.68;95178.59;5052412;28;20199;-69
2023/12/29 04:47:55;;;;;;;37.33;23.93;;;;;;;6.87;69.62;95176.97;5052487;28;20675;-72
2023/12/29 04:50:22;;;;;;;36.47;24.83;;;;;;;6.86;69.62;95182.94;5052016;28;20187;-65
2023/12/29 04:52:49;;;;;;;37.03;23.97;;;;;;;6.76;69.68;95169.25;5052393;28;20191;-64
2023/12/29 04:55:15;;;;;;;38.67;24.23;;;;;;;6.73;69.47;95154.19;5052350;28;20290;-70
2023/12/29 04:57:44;;;;;;;35.60;23.73;;;;;;;6.76;69.67;95159.06;5052304;28;20195;-69
2023/12/29 05:00:11;;;;;;;37.67;23.40;;;;;;;6.61;69.65;95135.53;5052435;28;20294;-71
2023/12/29 05:02:39;;;;;;;38.50;25.00;;;;;;;6.79;69.62;95161.41;5051791;28;20221;-69
2023/12/29 05:05:07;;;;;;;39.93;24.47;;;;;;;6.75;69.58;95149.84;5052067;28;20257;-71
2023/12/29 05:07:33;;;;;;;39.67;24.07;;;;;;;6.19;69.66;95065.53;5051983;28;20206;-74
2023/12/29 05:10:00;;;;;;;39.73;24.27;;;;;;;6.76;69.77;95151.44;5051947;28;20206;-70
2023/12/29 05:12:27;;;;;;;46.27;27.83;;;;;;;6.77;69.73;95150.53;5051875;28;20684;-71
2023/12/29 05:14:55;;;;;;;40.23;26.00;;;;;;;6.77;69.77;95142.91;5052266;28;20629;-67
2023/12/29 05:17:22;;;;;;;36.20;24.97;;;;;;;6.77;69.52;95148.78;5051835;28;20203;-71
2023/12/29 05:19:48;;;;;;;41.20;26.23;;;;;;;6.75;69.93;95144.75;5051692;28;20719;-71
2023/12/29 05:22:17;;;;;;;39.37;25.70;;;;;;;6.76;69.86;95146.38;5051918;28;20215;-72
2023/12/29 05:24:45;;;;;;;43.90;25.47;;;;;;;6.76;69.89;95156.53;5051921;28;20278;-73
2023/12/29 05:27:12;;;;;;;38.87;23.83;;;;;;;6.67;69.82;95147.78;5051483;28;20222;-73
2023/12/29 05:29:38;;;;;;;38.83;24.97;;;;;;;6.73;69.83;95154.19;5051755;28;20229;-73
2023/12/29 05:32:08;;;;;;;41.43;24.27;;;;;;;6.58;69.89;95127.28;5051545;28;20257;-64
2023/12/29 05:34:35;;;;;;;34.27;23.07;;;;;;;6.62;69.89;95136.31;5051348;28;20187;-73
2023/12/29 05:37:01;;;;;;;37.67;23.83;;;;;;;6.60;69.87;95138.13;5051665;28;20187;-72
2023/12/29 05:39:29;;;;;;;34.53;23.17;;;;;;;6.68;69.84;95151.97;5051157;28;20582;-73
2023/12/29 05:41:55;;;;;;;38.37;24.33;;;;;;;6.68;69.94;95162.13;5051260;28;20194;-74
2023/12/29 05:44:22;;;;;;;40.50;26.30;;;;;;;6.68;69.96;95161.31;5051186;28;20613;-73
2023/12/29 05:46:51;;;;;;;38.47;22.97;;;;;;;6.67;69.88;95159.69;5051507;28;20637;-70
2023/12/29 05:49:19;;;;;;;34.90;23.47;;;;;;;6.67;69.87;95164.78;5051133;28;20692;-72
2023/12/29 05:51:46;;;;;;;34.43;22.70;;;;;;;6.65;69.89;95164.88;5051755;28;20581;-73
2023/12/29 05:54:13;;;;;;;37.33;23.20;;;;;;;6.62;70.09;95154.13;5051149;28;20184;-71
2023/12/29 05:56:39;;;;;;;33.30;23.27;;;;;;;6.65;69.87;95164.88;5051131;28;20266;-74
2023/12/29 05:59:06;;;;;;;36.93;23.97;;;;;;;6.65;69.96;95162.34;5051370;28;20187;-76
2023/12/29 06:01:33;;;;;;;41.97;26.03;;;;;;;6.66;69.75;95158.06;5051244;28;20190;-72
2023/12/29 06:04:00;;;;;;;37.73;23.47;;;;;;;6.66;69.78;95153.81;5051449;28;20215;-73
2023/12/29 06:06:28;;;;;;;32.47;23.30;;;;;;;6.65;69.78;95144.56;5051169;28;20199;-67
2023/12/29 06:08:55;;;;;;;38.13;24.97;;;;;;;6.65;69.89;95144.56;5050904;28;20191;-74
2023/12/29 06:11:22;;;;;;;41.67;25.10;;;;;;;6.65;69.93;95149.66;5051092;28;20190;-73
2023/12/29 06:13:49;;;;;;;39.37;24.53;;;;;;;6.66;69.93;95140.28;5050872;28;20187;-74
2023/12/29 06:16:20;;;;;;;38.40;23.60;;;;;;;6.53;69.73;95125.84;5050820;28;20199;-75
2023/12/29 06:18:47;;;;;;;35.37;24.17;;;;;;;6.68;69.88;95149.41;5050933;28;20226;-65
2023/12/29 06:21:14;;;;;;;39.07;25.03;;;;;;;6.50;69.80;95123.50;5050985;28;20191;-72
2023/12/29 06:23:42;;;;;;;37.30;24.97;;;;;;;6.73;69.70;95155.00;5051653;28;20214;-71
2023/12/29 06:26:16;;;;;;;35.53;25.37;;;;;;;6.76;69.70;95164.97;5055875;28;20199;-73
2023/12/29 06:28:42;;;;;;;40.50;24.37;;;;;;;6.84;69.64;95159.38;5068060;28;20191;-71
2023/12/29 06:31:09;;;;;;;43.13;26.37;;;;;;;6.98;69.29;95161.78;5068043;28;20198;-74
2023/12/29 06:33:36;;;;;;;42.03;25.93;;;;;;;7.22;68.86;95168.69;5050953;28;20195;-73
2023/12/29 06:36:04;;;;;;;42.93;26.87;;;;;;;7.40;68.50;95153.88;5050780;28;20197;-66
2023/12/29 06:38:33;;;;;;;41.77;26.50;;;;;;;7.77;68.60;95164.78;5050514;28;20197;-66
2023/12/29 06:41:03;;;;;;;40.37;24.63;;;;;;;8.04;68.03;95160.28;5050453;28;20187;-71
2023/12/29 06:43:29;;;;;;;40.47;25.27;;;;;;;8.42;68.24;95164.38;5050153;28;20210;-69
2023/12/29 06:45:55;;;;;;;37.40;26.80;;;;;;;8.51;68.20;95124.66;5050062;28;20187;-68
2023/12/29 06:48:22;;;;;;;44.07;27.73;;;;;;;9.13;67.76;95167.53;5050146;28;20205;-68
2023/12/29 06:50:49;;;;;;;44.47;27.23;;;;;;;9.25;67.94;95128.31;5049277;28;20590;-71
2023/12/29 06:53:16;;;;;;;42.27;27.93;;;;;;;9.88;67.92;95161.69;5049881;28;20199;-72
2023/12/29 06:55:43;;;;;;;40.87;27.50;;;;;;;10.27;67.65;95162.81;5050343;28;20194;-70
2023/12/29 06:58:11;;;;;;;48.17;28.60;;;;;;;10.67;67.56;95164.69;5049791;28;20656;-69
2023/12/29 07:00:38;;;;;;;37.73;26.03;;;;;;;11.10;67.22;95166.25;5049828;28;20194;-70
2023/12/29 07:03:05;;;;;;;45.73;27.90;;;;;;;11.50;66.66;95168.78;5049754;28;20644;-74
2023/12/29 07:05:32;;;;;;;42.43;27.60;;;;;;;11.89;66.05;95171.41;5049608;28;20325;-66
2023/12/29 07:07:59;;;;;;;42.50;29.00;;;;;;;12.23;65.38;95163.34;5049759;28;20572;-73
2023/12/29 07:10:26;;;;;;;41.13;29.07;;;;;;;12.58;64.69;95152.47;5049758;28;20190;-70
2023/12/29 07:12:52;;;;;;;41.17;30.03;;;;;;;13.07;64.08;95165.97;5049669;28;20190;-68
2023/12/29 07:15:22;;;;;;;40.60;28.37;;;;;;;13.25;63.54;95135.22;5049941;28;20199;-70
2023/12/29 07:17:49;;;;;;;45.77;29.43;;;;;;;13.86;62.49;95167.19;5049497;28;20210;-74
2023/12/29 07:20:16;;;;;;;48.37;28.90;;;;;;;14.11;61.91;95145.91;5049369;28;20227;-66
2023/12/29 07:22:43;;;;;;;43.63;27.97;;;;;;;14.59;61.22;95156.75;5049140;28;20214;-69
2023/12/29 07:25:11;;;;;;;44.00;28.80;;;;;;;14.78;60.46;95136.75;5049811;28;20183;-70
2023/12/29 07:27:38;;;;;;;42.77;28.47;;;;;;;15.27;59.85;95157.59;5049230;28;20215;-73
2023/12/29 07:30:05;;;;;;;46.20;30.83;;;;;;;15.57;58.97;95153.66;5049717;28;20193;-65
2023/12/29 07:32:34;;;;;;;41.20;29.67;;;;;;;15.87;58.26;95148.94;5049614;28;20195;-68
2023/12/29 07:35:00;;;;;;;48.73;30.93;;;;;;;16.08;57.70;95143.31;5049228;28;20621;-71
2023/12/29 07:37:27;;;;;;;43.77;30.57;;;;;;;16.42;56.94;95150.91;5049807;28;20183;-68
2023/12/29 07:39:54;;;;;;;44.57;32.30;;;;;;;16.53;56.33;95131.69;5049314;28;20191;-70
2023/12/29 07:42:21;;;;;;;43.67;31.40;;;;;;;16.91;55.48;95150.06;5051152;28;20222;-71
2023/12/29 07:44:48;;;;;;;46.90;32.23;;;;;;;17.12;55.50;95145.16;5051189;28;20711;-75
2023/12/29 07:47:15;;;;;;;48.93;34.27;;;;;;;17.01;55.27;95127.41;5050961;28;20201;-71
2023/12/29 07:49:44;;;;;;;47.73;33.20;;;;;;;17.12;55.00;95157.28;5049221;28;20309;-70
2023/12/29 07:52:11;;;;;;;49.20;34.63;;;;;;;17.00;54.86;95156.81;5049516;28;20187;-71
2023/12/29 07:54:37;;;;;;;46.70;32.80;;;;;;;16.85;54.80;95163.66;5049277;28;20183;-70
2023/12/29 07:57:05;;;;;;;46.40;34.70;;;;;;;16.68;54.97;95160.25;5049626;28;20563;-70
2023/12/29 07:59:31;;;;;;;51.57;34.60;;;;;;;16.48;54.83;95168.31;5049237;28;20193;-69
2023/12/29 08:01:58;;;;;;;50.47;35.70;;;;;;;16.29;54.80;95173.81;5049145;28;20187;-72
2023/12/29 08:04:25;;;;;;;53.87;36.73;;;;;;;16.15;54.71;95170.13;5048551;28;20229;-70
2023/12/29 08:06:53;;;;;;;53.20;36.87;;;;;;;16.16;54.37;95163.19;5048891;28;20600;-66
2023/12/29 08:09:20;;;;;;;52.50;35.80;;;;;;;16.33;53.64;95164.00;5049220;28;20183;-69
2023/12/29 08:11:48;;;;;;;51.23;34.23;;;;;;;16.36;53.11;95166.22;5048534;28;20778;-69
2023/12/29 08:14:15;;;;;;;47.83;33.93;;;;;;;16.12;53.43;95165.25;5049068;28;20187;-73
2023/12/29 08:16:42;;;;;;;50.13;35.73;;;;;;;15.28;53.52;95066.47;5048624;28;20191;-66
2023/12/29 08:19:09;;;;;;;49.30;34.97;;;;;;;15.71;53.65;95172.91;5049028;28;20704;-66
2023/12/29 08:21:36;;;;;;;48.00;34.57;;;;;;;15.51;53.91;95169.78;5048657;28;20202;-66
2023/12/29 08:24:05;;;;;;;48.03;35.87;;;;;;;15.35;54.01;95161.97;5049522;28;20228;-72
2023/12/29 08:26:32;;;;;;;50.30;35.03;;;;;;;15.23;54.13;95163.22;5048799;28;20192;-71
2023/12/29 08:28:59;;;;;;;49.20;34.90;;;;;;;15.12;54.20;95156.56;5049046;28;20260;-71
2023/12/29 08:31:27;;;;;;;54.53;37.17;;;;;;;15.05;54.14;95161.53;5048686;28;20191;-67
2023/12/29 08:33:54;;;;;;;49.60;35.93;;;;;;;15.08;53.96;95167.34;5048753;28;20581;-74
2023/12/29 08:36:21;;;;;;;51.93;36.73;;;;;;;15.24;53.42;95159.66;5048677;28;20195;-71
2023/12/29 08:38:48;;;;;;;58.63;37.60;;;;;;;15.62;52.57;95173.81;5048736;28;20191;-70
2023/12/29 08:41:18;;;;;;;56.03;35.50;;;;;;;15.97;51.54;95169.41;5048553;28;20314;-73
2023/12/29 08:43:44;;;;;;;52.90;34.70;;;;;;;16.23;50.89;95169.28;5048948;28;20226;-73
2023/12/29 08:46:11;;;;;;;52.63;36.87;;;;;;;15.85;51.08;95139.75;5049049;28;20186;-72
2023/12/29 08:48:38;;;;;;;55.90;37.03;;;;;;;15.64;51.38;95171.09;5049055;28;20258;-70
2023/12/29 08:51:06;;;;;;;57.40;37.47;;;;;;;15.30;51.98;95170.19;5048829;28;20191;-75
2023/12/29 08:53:35;;;;;;;50.17;36.63;;;;;;;14.90;52.20;95145.03;5052213;28;20187;-75
2023/12/29 08:56:02;;;;;;;58.37;38.93;;;;;;;14.71;52.52;95161.47;5052725;28;20191;-73
2023/12/29 08:58:30;;;;;;;54.07;38.17;;;;;;;14.60;53.08;95182.34;5053201;28;20203;-73
2023/12/29 09:00:57;;;;;;;51.63;37.80;;;;;;;14.34;53.13;95164.28;5055148;28;20191;-69
2023/12/29 09:03:24;;;;;;;50.07;36.33;;;;;;;14.28;53.60;95182.84;5065126;28;20207;-69
2023/12/29 09:05:51;;;;;;;57.67;37.47;;;;;;;14.14;53.76;95185.97;5062414;28;20190;-67
2023/12/29 09:08:18;;;;;;;56.13;37.07;;;;;;;13.97;53.92;95174.72;5053523;28;20552;-72
2023/12/29 09:10:45;;;;;;;52.60;36.97;;;;;;;13.91;54.18;95178.69;5052299;28;20192;-66
2023/12/29 09:13:11;;;;;;;55.30;36.30;;;;;;;13.53;54.37;95130.91;5051950;28;20205;-68
2023/12/29 09:15:39;;;;;;;60.90;38.03;;;;;;;13.70;54.59;95171.25;5052390;28;20248;-67
2023/12/29 09:18:07;;;;;;;56.20;36.37;;;;;;;13.71;54.67;95175.41;5051496;28;20607;-69
2023/12/29 09:20:33;;;;;;;54.10;35.30;;;;;;;13.66;54.64;95169.91;5052101;28;20222;-68
2023/12/29 09:23:03;;;;;;;54.30;35.90;;;;;;;13.62;54.76;95160.88;5051858;28;20217;-68
2023/12/29 09:25:30;;;;;;;58.47;36.73;;;;;;;13.59;54.76;95152.63;5051791;28;20666;-64
2023/12/29 09:27:56;;;;;;;58.27;36.00;;;;;;;13.55;55.04;95147.78;5051659;28;20195;-69
2023/12/29 09:30:23;;;;;;;56.03;35.53;;;;;;;13.42;55.12;95115.69;5051612;28;20195;-67
2023/12/29 09:32:51;;;;;;;57.20;36.43;;;;;;;13.30;54.96;95097.91;5051402;28;20286;-69
2023/12/29 09:35:20;;;;;;;47.87;34.67;;;;;;;13.35;55.50;95114.66;5051597;28;20202;-66
2023/12/29 09:37:48;;;;;;;54.27;36.27;;;;;;;13.48;55.27;95133.09;5051784;28;20187;-71
2023/12/29 09:40:16;;;;;;;54.47;32.63;;;;;;;13.38;55.50;95120.28;5051698;28;20194;-68
2023/12/29 09:42:44;;;;;;;49.63;33.50;;;;;;;13.47;55.62;95131.47;5051739;28;20660;-66
2023/12/29 09:45:12;;;;;;;50.90;33.07;;;;;;;13.42;55.34;95123.38;5051452;28;20234;-70
2023/12/29 09:47:40;;;;;;;45.70;33.07;;;;;;;13.45;55.50;95129.03;5051457;28;20683;-70
2023/12/29 09:50:11;;;;;;;48.50;33.40;;;;;;;13.41;55.50;95122.59;5051473;28;20198;-68
2023/12/29 09:52:39;;;;;;;53.27;33.37;;;;;;;13.44;55.78;95129.19;5051461;28;20561;-71
2023/12/29 09:55:10;;;;;;;48.70;32.90;;;;;;;13.43;55.83;95120.69;5051729;28;20276;-67
2023/12/29 09:57:38;;;;;;;42.53;31.07;;;;;;;13.45;55.89;95120.53;5051637;28;20211;-68
2023/12/29 10:00:06;;;;;;;45.03;31.37;;;;;;;13.45;55.75;95121.34;5051194;28;20183;-65
2023/12/29 10:02:33;;;;;;;51.00;31.03;;;;;;;13.45;55.92;95116.19;5051334;28;20629;-64
2023/12/29 10:05:04;;;;;;;48.90;31.93;;;;;;;13.47;55.90;95109.19;5050221;28;20222;-67
2023/12/29 10:07:36;;;;;;;49.67;32.17;;;;;;;13.48;55.87;95105.66;5051295;28;20187;-67
2023/12/29 10:10:06;;;;;;;47.30;32.17;;;;;;;13.23;55.68;95060.91;5050976;28;20530;-64
2023/12/29 10:12:34;;;;;;;47.83;30.77;;;;;;;13.39;55.94;95074.88;5050965;28;20564;-65
2023/12/29 10:15:09;;;;;;;50.13;31.07;;;;;;;13.53;55.97;95095.72;5050548;28;20683;-64
2023/12/29 10:17:44;;;;;;;43.90;30.03;;;;;;;13.36;55.96;95054.63;5051193;28;20189;-69
2023/12/29 10:20:22;;;;;;;42.03;30.13;;;;;;;13.60;55.91;95087.44;5050300;28;20240;-65
2023/12/29 10:22:55;;;;;;;43.73;30.40;;;;;;;13.64;55.87;95091.31;5050793;28;20576;-70
2023/12/29 10:25:24;;;;;;;52.43;31.70;;;;;;;13.62;55.67;95065.78;5050599;28;20285;-69
2023/12/29 10:27:51;;;;;;;49.73;29.93;;;;;;;13.73;55.76;95069.88;5050868;28;20191;-72
2023/12/29 10:30:18;;;;;;;46.07;29.33;;;;;;;13.75;55.73;95066.22;5050290;28;20195;-72
2023/12/29 10:32:50;;;;;;;41.90;29.80;;;;;;;13.81;55.85;95059.66;5050484;28;20192;-69
2023/12/29 10:35:17;;;;;;;41.50;28.20;;;;;;;13.86;55.64;95048.94;5050089;28;20691;-68
2023/12/29 10:37:44;;;;;;;44.53;29.17;;;;;;;13.66;55.78;95020.03;5050318;28;20242;-70
2023/12/29 10:40:18;;;;;;;42.00;26.93;;;;;;;13.97;55.61;95046.94;5050241;28;20686;-68
2023/12/29 10:42:53;;;;;;;42.73;29.63;;;;;;;13.86;55.48;95013.78;5050135;28;20572;-66
2023/12/29 10:45:20;;;;;;;40.40;27.83;;;;;;;14.09;55.48;95032.09;5050345;28;20301;-71
2023/12/29 10:47:47;;;;;;;41.77;28.40;;;;;;;14.16;55.36;95030.53;5050137;28;20187;-69
2023/12/29 10:50:13;;;;;;;45.03;27.63;;;;;;;14.23;55.15;95026.38;5049892;28;20660;-72
2023/12/29 10:52:42;;;;;;;36.40;26.03;;;;;;;14.30;55.24;95022.25;5050200;28;20194;-67
2023/12/29 10:55:10;;;;;;;43.20;27.57;;;;;;;14.24;55.06;94994.53;5049957;28;20179;-69
2023/12/29 10:57:39;;;;;;;34.90;25.57;;;;;;;14.38;55.04;95011.19;5049857;28;20195;-73
2023/12/29 11:00:08;;;;;;;37.43;26.13;;;;;;;14.47;55.12;95009.47;5049765;28;20672;-72
2023/12/29 11:02:35;;;;;;;38.57;26.57;;;;;;;14.53;54.96;94994.25;5050061;28;20648;-72
2023/12/29 11:05:04;;;;;;;37.53;26.90;;;;;;;14.67;54.70;94997.19;5049878;28;20206;-71
2023/12/29 11:07:35;;;;;;;36.20;24.67;;;;;;;14.74;54.70;94998.19;5049579;28;20206;-69
2023/12/29 11:10:04;;;;;;;41.17;26.27;;;;;;;14.81;54.73;94994.03;5049839;28;20203;-73
2023/12/29 11:12:34;;;;;;;41.23;25.50;;;;;;;14.85;54.79;94986.78;5049553;28;20620;-71
2023/12/29 11:15:04;;;;;;;38.47;27.17;;;;;;;14.90;54.76;94987.16;5049850;28;20215;-70
2023/12/29 11:17:32;;;;;;;39.60;25.90;;;;;;;14.87;54.66;94977.16;5049415;28;20241;-67
2023/12/29 11:20:00;;;;;;;41.97;27.77;;;;;;;14.88;54.46;94971.84;5049408;28;20250;-70
2023/12/29 11:22:30;;;;;;;42.70;28.50;;;;;;;14.95;54.77;94983.13;5049109;28;20230;-70